sensor_id;sensor_type;location;lat;lon;timestamp;P1;durP1;ratioP1;P2;durP2;ratioP2
77872;SDS011;67068;52.116;4.440;2023-11-25T00:00:39;5.32;;;0.88;;
77872;SDS011;67068;52.116;4.440;2023-11-25T00:03:04;5.28;;;0.80;;
77872;SDS011;67068;52.116;4.440;2023-11-25T00:05:29;6.57;;;1.07;;
77872;SDS011;67068;52.116;4.440;2023-11-25T00:07:54;3.53;;;0.60;;
77872;SDS011;67068;52.116;4.440;2023-11-25T00:10:20;4.97;;;0.70;;
77872;SDS011;67068;52.116;4.440;2023-11-25T00:12:45;3.80;;;0.80;;
77872;SDS011;67068;52.116;4.440;2023-11-25T00:15:12;2.08;;;0.68;;
77872;SDS011;67068;52.116;4.440;2023-11-25T00:17:37;4.68;;;1.08;;
77872;SDS011;67068;52.116;4.440;2023-11-25T00:20:03;5.97;;;0.70;;
77872;SDS011;67068;52.116;4.440;2023-11-25T00:22:30;5.60;;;1.05;;
77872;SDS011;67068;52.116;4.440;2023-11-25T00:24:55;6.53;;;0.70;;
77872;SDS011;67068;52.116;4.440;2023-11-25T00:27:21;3.92;;;0.60;;
77872;SDS011;67068;52.116;4.440;2023-11-25T00:29:47;2.95;;;0.60;;
77872;SDS011;67068;52.116;4.440;2023-11-25T00:32:12;3.78;;;0.60;;
77872;SDS011;67068;52.116;4.440;2023-11-25T00:34:37;4.87;;;0.90;;
77872;SDS011;67068;52.116;4.440;2023-11-25T00:37:03;4.20;;;0.70;;
77872;SDS011;67068;52.116;4.440;2023-11-25T00:39:28;4.72;;;0.70;;
77872;SDS011;67068;52.116;4.440;2023-11-25T00:41:54;3.28;;;0.70;;
77872;SDS011;67068;52.116;4.440;2023-11-25T00:44:19;5.38;;;0.90;;
77872;SDS011;67068;52.116;4.440;2023-11-25T00:46:45;4.17;;;0.63;;
77872;SDS011;67068;52.116;4.440;2023-11-25T00:49:10;3.60;;;0.77;;
77872;SDS011;67068;52.116;4.440;2023-11-25T00:51:37;5.72;;;1.17;;
77872;SDS011;67068;52.116;4.440;2023-11-25T00:54:03;3.75;;;0.57;;
77872;SDS011;67068;52.116;4.440;2023-11-25T00:56:29;2.80;;;0.63;;
77872;SDS011;67068;52.116;4.440;2023-11-25T00:58:54;4.47;;;0.70;;
77872;SDS011;67068;52.116;4.440;2023-11-25T01:01:20;5.07;;;0.80;;
77872;SDS011;67068;52.116;4.440;2023-11-25T01:03:45;4.47;;;0.80;;
77872;SDS011;67068;52.116;4.440;2023-11-25T01:06:10;6.30;;;1.33;;
77872;SDS011;67068;52.116;4.440;2023-11-25T01:08:35;5.87;;;0.90;;
77872;SDS011;67068;52.116;4.440;2023-11-25T01:11:01;5.10;;;0.80;;
77872;SDS011;67068;52.116;4.440;2023-11-25T01:13:27;2.27;;;0.60;;
77872;SDS011;67068;52.116;4.440;2023-11-25T01:15:53;3.42;;;0.70;;
77872;SDS011;67068;52.116;4.440;2023-11-25T01:18:19;6.13;;;0.85;;
77872;SDS011;67068;52.116;4.440;2023-11-25T01:20:44;4.07;;;0.70;;
77872;SDS011;67068;52.116;4.440;2023-11-25T01:23:09;1.93;;;0.50;;
77872;SDS011;67068;52.116;4.440;2023-11-25T01:25:35;2.15;;;0.57;;
77872;SDS011;67068;52.116;4.440;2023-11-25T01:28:00;3.72;;;0.60;;
77872;SDS011;67068;52.116;4.440;2023-11-25T01:30:26;5.73;;;1.03;;
77872;SDS011;67068;52.116;4.440;2023-11-25T01:32:51;6.03;;;0.93;;
77872;SDS011;67068;52.116;4.440;2023-11-25T01:35:16;5.63;;;0.67;;
77872;SDS011;67068;52.116;4.440;2023-11-25T01:37:41;5.20;;;0.77;;
77872;SDS011;67068;52.116;4.440;2023-11-25T01:40:07;3.77;;;0.63;;
77872;SDS011;67068;52.116;4.440;2023-11-25T01:42:35;3.38;;;0.60;;
77872;SDS011;67068;52.116;4.440;2023-11-25T01:45:01;3.30;;;0.80;;
77872;SDS011;67068;52.116;4.440;2023-11-25T01:47:27;6.50;;;1.10;;
77872;SDS011;67068;52.116;4.440;2023-11-25T01:49:52;3.87;;;0.70;;
77872;SDS011;67068;52.116;4.440;2023-11-25T01:52:18;4.47;;;0.75;;
77872;SDS011;67068;52.116;4.440;2023-11-25T01:54:43;5.03;;;1.00;;
77872;SDS011;67068;52.116;4.440;2023-11-25T01:57:08;3.73;;;0.80;;
77872;SDS011;67068;52.116;4.440;2023-11-25T01:59:35;3.97;;;0.80;;
77872;SDS011;67068;52.116;4.440;2023-11-25T02:02:00;4.65;;;0.70;;
77872;SDS011;67068;52.116;4.440;2023-11-25T02:04:26;2.67;;;0.65;;
77872;SDS011;67068;52.116;4.440;2023-11-25T02:06:51;4.30;;;0.90;;
77872;SDS011;67068;52.116;4.440;2023-11-25T02:09:17;3.28;;;0.57;;
77872;SDS011;67068;52.116;4.440;2023-11-25T02:11:58;5.03;;;0.75;;
77872;SDS011;67068;52.116;4.440;2023-11-25T02:14:24;1.85;;;0.60;;
77872;SDS011;67068;52.116;4.440;2023-11-25T02:16:52;2.83;;;0.70;;
77872;SDS011;67068;52.116;4.440;2023-11-25T02:19:17;4.23;;;0.80;;
77872;SDS011;67068;52.116;4.440;2023-11-25T02:21:43;2.72;;;0.63;;
77872;SDS011;67068;52.116;4.440;2023-11-25T02:24:09;5.88;;;0.93;;
77872;SDS011;67068;52.116;4.440;2023-11-25T02:26:35;1.90;;;0.43;;
77872;SDS011;67068;52.116;4.440;2023-11-25T02:29:00;4.40;;;0.73;;
77872;SDS011;67068;52.116;4.440;2023-11-25T02:31:25;4.13;;;0.67;;
77872;SDS011;67068;52.116;4.440;2023-11-25T02:33:50;3.97;;;0.60;;
77872;SDS011;67068;52.116;4.440;2023-11-25T02:36:16;3.60;;;0.60;;
77872;SDS011;67068;52.116;4.440;2023-11-25T02:38:41;4.20;;;0.60;;
77872;SDS011;67068;52.116;4.440;2023-11-25T02:41:07;4.97;;;0.80;;
77872;SDS011;67068;52.116;4.440;2023-11-25T02:43:33;2.92;;;0.50;;
77872;SDS011;67068;52.116;4.440;2023-11-25T02:45:58;3.53;;;0.70;;
77872;SDS011;67068;52.116;4.440;2023-11-25T02:48:24;4.10;;;0.73;;
77872;SDS011;67068;52.116;4.440;2023-11-25T02:50:50;4.38;;;0.80;;
77872;SDS011;67068;52.116;4.440;2023-11-25T02:53:15;5.67;;;0.90;;
77872;SDS011;67068;52.116;4.440;2023-11-25T02:55:40;4.50;;;0.60;;
77872;SDS011;67068;52.116;4.440;2023-11-25T02:58:05;3.23;;;0.67;;
77872;SDS011;67068;52.116;4.440;2023-11-25T03:00:32;3.55;;;0.55;;
77872;SDS011;67068;52.116;4.440;2023-11-25T03:03:02;3.38;;;0.60;;
77872;SDS011;67068;52.116;4.440;2023-11-25T03:05:37;3.63;;;0.60;;
77872;SDS011;67068;52.116;4.440;2023-11-25T03:08:03;3.97;;;0.88;;
77872;SDS011;67068;52.116;4.440;2023-11-25T03:10:29;5.32;;;0.68;;
77872;SDS011;67068;52.116;4.440;2023-11-25T03:12:55;4.28;;;0.60;;
77872;SDS011;67068;52.116;4.440;2023-11-25T03:15:20;4.32;;;0.75;;
77872;SDS011;67068;52.116;4.440;2023-11-25T03:17:46;4.40;;;0.70;;
77872;SDS011;67068;52.116;4.440;2023-11-25T03:20:11;3.77;;;0.73;;
77872;SDS011;67068;52.116;4.440;2023-11-25T03:22:36;4.90;;;1.02;;
77872;SDS011;67068;52.116;4.440;2023-11-25T03:25:02;4.10;;;0.55;;
77872;SDS011;67068;52.116;4.440;2023-11-25T03:27:30;3.10;;;0.50;;
77872;SDS011;67068;52.116;4.440;2023-11-25T03:29:56;4.20;;;0.70;;
77872;SDS011;67068;52.116;4.440;2023-11-25T03:32:21;3.63;;;0.73;;
77872;SDS011;67068;52.116;4.440;2023-11-25T03:34:50;2.40;;;0.75;;
77872;SDS011;67068;52.116;4.440;2023-11-25T03:37:15;3.83;;;0.60;;
77872;SDS011;67068;52.116;4.440;2023-11-25T03:39:40;3.90;;;0.60;;
77872;SDS011;67068;52.116;4.440;2023-11-25T03:42:06;2.80;;;0.50;;
77872;SDS011;67068;52.116;4.440;2023-11-25T03:44:31;3.40;;;0.50;;
77872;SDS011;67068;52.116;4.440;2023-11-25T03:46:56;4.33;;;0.90;;
77872;SDS011;67068;52.116;4.440;2023-11-25T03:49:22;5.35;;;0.60;;
77872;SDS011;67068;52.116;4.440;2023-11-25T03:51:47;3.87;;;0.57;;
77872;SDS011;67068;52.116;4.440;2023-11-25T03:54:12;4.73;;;0.70;;
77872;SDS011;67068;52.116;4.440;2023-11-25T03:56:38;6.30;;;0.97;;
77872;SDS011;67068;52.116;4.440;2023-11-25T03:59:03;6.73;;;0.80;;
77872;SDS011;67068;52.116;4.440;2023-11-25T04:01:28;3.87;;;0.70;;
77872;SDS011;67068;52.116;4.440;2023-11-25T04:03:53;4.80;;;0.70;;
77872;SDS011;67068;52.116;4.440;2023-11-25T04:06:18;5.87;;;0.73;;
77872;SDS011;67068;52.116;4.440;2023-11-25T04:08:44;3.43;;;0.70;;
77872;SDS011;67068;52.116;4.440;2023-11-25T04:11:09;2.75;;;0.50;;
77872;SDS011;67068;52.116;4.440;2023-11-25T04:13:34;6.03;;;0.43;;
77872;SDS011;67068;52.116;4.440;2023-11-25T04:15:59;4.00;;;0.53;;
77872;SDS011;67068;52.116;4.440;2023-11-25T04:18:25;8.23;;;1.03;;
77872;SDS011;67068;52.116;4.440;2023-11-25T04:20:50;5.43;;;0.80;;
77872;SDS011;67068;52.116;4.440;2023-11-25T04:23:16;3.85;;;0.70;;
77872;SDS011;67068;52.116;4.440;2023-11-25T04:25:41;5.35;;;0.80;;
77872;SDS011;67068;52.116;4.440;2023-11-25T04:28:07;4.57;;;0.60;;
77872;SDS011;67068;52.116;4.440;2023-11-25T04:30:34;5.10;;;0.90;;
77872;SDS011;67068;52.116;4.440;2023-11-25T04:32:59;2.95;;;0.47;;
77872;SDS011;67068;52.116;4.440;2023-11-25T04:35:24;5.43;;;0.70;;
77872;SDS011;67068;52.116;4.440;2023-11-25T04:37:50;3.22;;;0.50;;
77872;SDS011;67068;52.116;4.440;2023-11-25T04:40:16;5.83;;;0.83;;
77872;SDS011;67068;52.116;4.440;2023-11-25T04:42:41;7.77;;;1.00;;
77872;SDS011;67068;52.116;4.440;2023-11-25T04:45:10;5.13;;;0.60;;
77872;SDS011;67068;52.116;4.440;2023-11-25T04:47:45;3.50;;;0.50;;
77872;SDS011;67068;52.116;4.440;2023-11-25T04:50:13;5.18;;;0.70;;
77872;SDS011;67068;52.116;4.440;2023-11-25T04:52:39;5.57;;;0.73;;
77872;SDS011;67068;52.116;4.440;2023-11-25T04:55:05;4.07;;;0.55;;
77872;SDS011;67068;52.116;4.440;2023-11-25T04:57:31;5.43;;;0.73;;
77872;SDS011;67068;52.116;4.440;2023-11-25T04:59:56;3.67;;;0.60;;
77872;SDS011;67068;52.116;4.440;2023-11-25T05:02:22;7.27;;;0.80;;
77872;SDS011;67068;52.116;4.440;2023-11-25T05:04:47;3.53;;;0.77;;
77872;SDS011;67068;52.116;4.440;2023-11-25T05:07:12;4.53;;;0.60;;
77872;SDS011;67068;52.116;4.440;2023-11-25T05:09:37;6.17;;;0.83;;
77872;SDS011;67068;52.116;4.440;2023-11-25T05:12:06;5.60;;;0.60;;
77872;SDS011;67068;52.116;4.440;2023-11-25T05:14:31;5.18;;;0.60;;
77872;SDS011;67068;52.116;4.440;2023-11-25T05:16:57;4.70;;;0.57;;
77872;SDS011;67068;52.116;4.440;2023-11-25T05:19:22;4.07;;;0.77;;
77872;SDS011;67068;52.116;4.440;2023-11-25T05:21:47;3.40;;;0.80;;
77872;SDS011;67068;52.116;4.440;2023-11-25T05:24:13;3.40;;;0.70;;
77872;SDS011;67068;52.116;4.440;2023-11-25T05:26:38;4.00;;;0.80;;
77872;SDS011;67068;52.116;4.440;2023-11-25T05:29:03;3.03;;;0.43;;
77872;SDS011;67068;52.116;4.440;2023-11-25T05:31:30;4.78;;;0.70;;
77872;SDS011;67068;52.116;4.440;2023-11-25T05:33:58;3.72;;;0.52;;
77872;SDS011;67068;52.116;4.440;2023-11-25T05:36:23;5.30;;;0.57;;
77872;SDS011;67068;52.116;4.440;2023-11-25T05:38:48;3.00;;;0.60;;
77872;SDS011;67068;52.116;4.440;2023-11-25T05:41:14;3.92;;;0.50;;
77872;SDS011;67068;52.116;4.440;2023-11-25T05:43:40;3.35;;;0.50;;
77872;SDS011;67068;52.116;4.440;2023-11-25T05:46:06;5.00;;;0.70;;
77872;SDS011;67068;52.116;4.440;2023-11-25T05:48:31;4.95;;;0.60;;
77872;SDS011;67068;52.116;4.440;2023-11-25T05:50:56;3.43;;;0.60;;
77872;SDS011;67068;52.116;4.440;2023-11-25T05:53:23;5.03;;;0.70;;
77872;SDS011;67068;52.116;4.440;2023-11-25T05:55:48;5.00;;;0.63;;
77872;SDS011;67068;52.116;4.440;2023-11-25T05:58:13;4.00;;;0.73;;
77872;SDS011;67068;52.116;4.440;2023-11-25T06:00:38;4.87;;;1.00;;
77872;SDS011;67068;52.116;4.440;2023-11-25T06:03:03;5.70;;;0.70;;
77872;SDS011;67068;52.116;4.440;2023-11-25T06:05:29;3.67;;;0.43;;
77872;SDS011;67068;52.116;4.440;2023-11-25T06:07:54;2.07;;;0.37;;
77872;SDS011;67068;52.116;4.440;2023-11-25T06:10:20;3.57;;;0.60;;
77872;SDS011;67068;52.116;4.440;2023-11-25T06:12:45;4.17;;;0.43;;
77872;SDS011;67068;52.116;4.440;2023-11-25T06:15:10;3.93;;;0.53;;
77872;SDS011;67068;52.116;4.440;2023-11-25T06:17:36;3.20;;;0.68;;
77872;SDS011;67068;52.116;4.440;2023-11-25T06:20:02;3.47;;;0.45;;
77872;SDS011;67068;52.116;4.440;2023-11-25T06:22:27;3.42;;;0.40;;
77872;SDS011;67068;52.116;4.440;2023-11-25T06:24:52;2.63;;;0.40;;
77872;SDS011;67068;52.116;4.440;2023-11-25T06:27:17;3.50;;;0.67;;
77872;SDS011;67068;52.116;4.440;2023-11-25T06:29:45;4.78;;;0.70;;
77872;SDS011;67068;52.116;4.440;2023-11-25T06:32:10;3.20;;;0.60;;
77872;SDS011;67068;52.116;4.440;2023-11-25T06:34:35;4.57;;;0.47;;
77872;SDS011;67068;52.116;4.440;2023-11-25T06:37:00;2.73;;;0.37;;
77872;SDS011;67068;52.116;4.440;2023-11-25T06:39:26;5.73;;;0.77;;
77872;SDS011;67068;52.116;4.440;2023-11-25T06:41:56;2.38;;;0.40;;
77872;SDS011;67068;52.116;4.440;2023-11-25T06:44:21;5.72;;;0.80;;
77872;SDS011;67068;52.116;4.440;2023-11-25T06:46:47;4.77;;;1.00;;
77872;SDS011;67068;52.116;4.440;2023-11-25T06:49:13;2.60;;;0.50;;
77872;SDS011;67068;52.116;4.440;2023-11-25T06:51:41;3.60;;;0.60;;
77872;SDS011;67068;52.116;4.440;2023-11-25T06:54:07;3.10;;;0.60;;
77872;SDS011;67068;52.116;4.440;2023-11-25T06:56:33;3.80;;;0.75;;
77872;SDS011;67068;52.116;4.440;2023-11-25T06:58:58;3.22;;;0.40;;
77872;SDS011;67068;52.116;4.440;2023-11-25T07:01:24;2.67;;;0.30;;
77872;SDS011;67068;52.116;4.440;2023-11-25T07:03:49;5.50;;;0.57;;
77872;SDS011;67068;52.116;4.440;2023-11-25T07:06:14;1.17;;;0.37;;
77872;SDS011;67068;52.116;4.440;2023-11-25T07:08:42;3.00;;;0.32;;
77872;SDS011;67068;52.116;4.440;2023-11-25T07:11:08;1.40;;;0.37;;
77872;SDS011;67068;52.116;4.440;2023-11-25T07:13:35;3.83;;;0.55;;
77872;SDS011;67068;52.116;4.440;2023-11-25T07:16:01;3.85;;;0.40;;
77872;SDS011;67068;52.116;4.440;2023-11-25T07:18:28;3.15;;;0.40;;
77872;SDS011;67068;52.116;4.440;2023-11-25T07:20:53;4.17;;;0.53;;
77872;SDS011;67068;52.116;4.440;2023-11-25T07:23:18;1.73;;;0.40;;
77872;SDS011;67068;52.116;4.440;2023-11-25T07:25:43;5.18;;;0.65;;
77872;SDS011;67068;52.116;4.440;2023-11-25T07:28:10;4.38;;;0.65;;
77872;SDS011;67068;52.116;4.440;2023-11-25T07:30:35;3.90;;;0.47;;
77872;SDS011;67068;52.116;4.440;2023-11-25T07:33:02;3.55;;;0.50;;
77872;SDS011;67068;52.116;4.440;2023-11-25T07:35:28;1.83;;;0.43;;
77872;SDS011;67068;52.116;4.440;2023-11-25T07:37:54;5.05;;;0.77;;
77872;SDS011;67068;52.116;4.440;2023-11-25T07:40:19;3.83;;;0.53;;
77872;SDS011;67068;52.116;4.440;2023-11-25T07:42:44;2.17;;;0.50;;
77872;SDS011;67068;52.116;4.440;2023-11-25T07:45:13;4.25;;;0.50;;
77872;SDS011;67068;52.116;4.440;2023-11-25T07:47:38;1.92;;;0.25;;
77872;SDS011;67068;52.116;4.440;2023-11-25T07:50:05;2.85;;;0.40;;
77872;SDS011;67068;52.116;4.440;2023-11-25T07:52:30;3.97;;;0.60;;
77872;SDS011;67068;52.116;4.440;2023-11-25T07:54:56;1.33;;;0.23;;
77872;SDS011;67068;52.116;4.440;2023-11-25T07:57:21;3.73;;;0.47;;
77872;SDS011;67068;52.116;4.440;2023-11-25T07:59:46;0.60;;;0.20;;
77872;SDS011;67068;52.116;4.440;2023-11-25T08:02:11;4.20;;;0.60;;
77872;SDS011;67068;52.116;4.440;2023-11-25T08:04:36;3.47;;;0.50;;
77872;SDS011;67068;52.116;4.440;2023-11-25T08:07:02;1.77;;;0.50;;
77872;SDS011;67068;52.116;4.440;2023-11-25T08:09:27;2.95;;;0.47;;
77872;SDS011;67068;52.116;4.440;2023-11-25T08:11:53;3.10;;;0.25;;
77872;SDS011;67068;52.116;4.440;2023-11-25T08:14:18;2.20;;;0.40;;
77872;SDS011;67068;52.116;4.440;2023-11-25T08:16:43;2.23;;;0.30;;
77872;SDS011;67068;52.116;4.440;2023-11-25T08:19:09;3.35;;;0.40;;
77872;SDS011;67068;52.116;4.440;2023-11-25T08:21:34;3.03;;;0.30;;
77872;SDS011;67068;52.116;4.440;2023-11-25T08:24:00;3.03;;;0.40;;
77872;SDS011;67068;52.116;4.440;2023-11-25T08:26:25;2.17;;;0.40;;
77872;SDS011;67068;52.116;4.440;2023-11-25T08:28:51;2.07;;;0.40;;
77872;SDS011;67068;52.116;4.440;2023-11-25T08:31:17;3.53;;;0.30;;
77872;SDS011;67068;52.116;4.440;2023-11-25T08:33:43;1.88;;;0.32;;
77872;SDS011;67068;52.116;4.440;2023-11-25T08:36:09;3.90;;;0.50;;
77872;SDS011;67068;52.116;4.440;2023-11-25T08:38:34;2.03;;;0.40;;
77872;SDS011;67068;52.116;4.440;2023-11-25T08:41:00;4.90;;;0.77;;
77872;SDS011;67068;52.116;4.440;2023-11-25T08:43:25;2.95;;;0.50;;
77872;SDS011;67068;52.116;4.440;2023-11-25T08:45:52;2.55;;;0.40;;
77872;SDS011;67068;52.116;4.440;2023-11-25T08:48:18;2.20;;;0.40;;
77872;SDS011;67068;52.116;4.440;2023-11-25T08:50:43;1.40;;;0.20;;
77872;SDS011;67068;52.116;4.440;2023-11-25T08:53:09;5.07;;;0.47;;
77872;SDS011;67068;52.116;4.440;2023-11-25T08:55:34;3.90;;;0.80;;
77872;SDS011;67068;52.116;4.440;2023-11-25T08:58:00;2.13;;;0.40;;
77872;SDS011;67068;52.116;4.440;2023-11-25T09:00:25;3.73;;;0.60;;
77872;SDS011;67068;52.116;4.440;2023-11-25T09:02:54;2.15;;;0.40;;
77872;SDS011;67068;52.116;4.440;2023-11-25T09:05:19;0.83;;;0.20;;
77872;SDS011;67068;52.116;4.440;2023-11-25T09:07:49;1.98;;;0.30;;
77872;SDS011;67068;52.116;4.440;2023-11-25T09:12:40;1.70;;;0.38;;
77872;SDS011;67068;52.116;4.440;2023-11-25T09:15:06;1.37;;;0.30;;
77872;SDS011;67068;52.116;4.440;2023-11-25T09:17:33;1.88;;;0.30;;
77872;SDS011;67068;52.116;4.440;2023-11-25T09:20:01;2.08;;;0.22;;
77872;SDS011;67068;52.116;4.440;2023-11-25T09:22:26;3.72;;;0.50;;
77872;SDS011;67068;52.116;4.440;2023-11-25T09:24:51;2.13;;;0.20;;
77872;SDS011;67068;52.116;4.440;2023-11-25T09:27:16;3.70;;;0.70;;
77872;SDS011;67068;52.116;4.440;2023-11-25T09:29:42;2.57;;;0.57;;
77872;SDS011;67068;52.116;4.440;2023-11-25T09:32:07;0.65;;;0.20;;
77872;SDS011;67068;52.116;4.440;2023-11-25T09:34:33;1.90;;;0.20;;
77872;SDS011;67068;52.116;4.440;2023-11-25T09:36:58;3.58;;;0.47;;
77872;SDS011;67068;52.116;4.440;2023-11-25T09:39:24;3.45;;;0.50;;
77872;SDS011;67068;52.116;4.440;2023-11-25T09:41:49;1.75;;;0.30;;
77872;SDS011;67068;52.116;4.440;2023-11-25T09:44:15;2.30;;;0.40;;
77872;SDS011;67068;52.116;4.440;2023-11-25T09:46:40;3.22;;;0.40;;
77872;SDS011;67068;52.116;4.440;2023-11-25T09:49:05;1.83;;;0.30;;
77872;SDS011;67068;52.116;4.440;2023-11-25T09:51:31;2.97;;;0.50;;
77872;SDS011;67068;52.116;4.440;2023-11-25T09:53:58;2.65;;;0.30;;
77872;SDS011;67068;52.116;4.440;2023-11-25T09:56:27;4.03;;;0.47;;
77872;SDS011;67068;52.116;4.440;2023-11-25T09:58:53;2.60;;;0.32;;
77872;SDS011;67068;52.116;4.440;2023-11-25T10:01:18;2.05;;;0.40;;
77872;SDS011;67068;52.116;4.440;2023-11-25T10:03:43;2.97;;;0.43;;
77872;SDS011;67068;52.116;4.440;2023-11-25T10:06:10;3.70;;;0.47;;
77872;SDS011;67068;52.116;4.440;2023-11-25T10:08:36;1.15;;;0.32;;
77872;SDS011;67068;52.116;4.440;2023-11-25T10:11:02;2.00;;;0.50;;
77872;SDS011;67068;52.116;4.440;2023-11-25T10:13:34;2.90;;;0.30;;
77872;SDS011;67068;52.116;4.440;2023-11-25T10:18:24;2.28;;;0.30;;
77872;SDS011;67068;52.116;4.440;2023-11-25T10:20:50;2.30;;;0.37;;
77872;SDS011;67068;52.116;4.440;2023-11-25T10:23:22;2.20;;;0.25;;
77872;SDS011;67068;52.116;4.440;2023-11-25T10:25:48;1.75;;;0.30;;
77872;SDS011;67068;52.116;4.440;2023-11-25T10:28:15;2.70;;;0.38;;
77872;SDS011;67068;52.116;4.440;2023-11-25T10:30:42;0.93;;;0.32;;
77872;SDS011;67068;52.116;4.440;2023-11-25T10:33:08;1.20;;;0.20;;
77872;SDS011;67068;52.116;4.440;2023-11-25T10:35:36;1.73;;;0.30;;
77872;SDS011;67068;52.116;4.440;2023-11-25T10:38:04;1.80;;;0.30;;
77872;SDS011;67068;52.116;4.440;2023-11-25T10:40:29;3.42;;;0.35;;
77872;SDS011;67068;52.116;4.440;2023-11-25T10:42:55;3.57;;;0.67;;
77872;SDS011;67068;52.116;4.440;2023-11-25T10:45:21;4.53;;;0.40;;
77872;SDS011;67068;52.116;4.440;2023-11-25T10:47:49;3.05;;;0.43;;
77872;SDS011;67068;52.116;4.440;2023-11-25T10:50:14;2.58;;;0.52;;
77872;SDS011;67068;52.116;4.440;2023-11-25T10:52:41;2.15;;;0.32;;
77872;SDS011;67068;52.116;4.440;2023-11-25T10:55:08;2.47;;;0.68;;
77872;SDS011;67068;52.116;4.440;2023-11-25T10:57:36;2.90;;;0.43;;
77872;SDS011;67068;52.116;4.440;2023-11-25T11:00:01;3.20;;;0.50;;
77872;SDS011;67068;52.116;4.440;2023-11-25T11:02:47;3.80;;;0.30;;
77872;SDS011;67068;52.116;4.440;2023-11-25T11:05:14;2.90;;;0.60;;
77872;SDS011;67068;52.116;4.440;2023-11-25T11:07:43;6.03;;;0.70;;
77872;SDS011;67068;52.116;4.440;2023-11-25T11:10:11;5.47;;;1.05;;
77872;SDS011;67068;52.116;4.440;2023-11-25T11:12:38;3.95;;;0.52;;
77872;SDS011;67068;52.116;4.440;2023-11-25T11:15:06;2.95;;;0.50;;
77872;SDS011;67068;52.116;4.440;2023-11-25T11:20:00;5.47;;;0.80;;
77872;SDS011;67068;52.116;4.440;2023-11-25T11:22:26;8.48;;;0.95;;
77872;SDS011;67068;52.116;4.440;2023-11-25T11:27:55;7.50;;;0.70;;
77872;SDS011;67068;52.116;4.440;2023-11-25T11:33:11;4.07;;;0.80;;
77872;SDS011;67068;52.116;4.440;2023-11-25T11:35:39;4.15;;;0.68;;
77872;SDS011;67068;52.116;4.440;2023-11-25T11:41:31;6.68;;;0.65;;
77872;SDS011;67068;52.116;4.440;2023-11-25T11:43:40;10.13;;;1.00;;
77872;SDS011;67068;52.116;4.440;2023-11-25T11:46:08;8.07;;;1.00;;
77872;SDS011;67068;52.116;4.440;2023-11-25T11:48:33;10.57;;;1.13;;
77872;SDS011;67068;52.116;4.440;2023-11-25T11:50:58;5.93;;;0.83;;
77872;SDS011;67068;52.116;4.440;2023-11-25T11:53:24;9.10;;;1.00;;
77872;SDS011;67068;52.116;4.440;2023-11-25T11:55:56;5.38;;;0.75;;
77872;SDS011;67068;52.116;4.440;2023-11-25T11:58:23;9.63;;;1.10;;
77872;SDS011;67068;52.116;4.440;2023-11-25T12:00:54;9.88;;;0.80;;
77872;SDS011;67068;52.116;4.440;2023-11-25T12:03:20;5.88;;;0.73;;
77872;SDS011;67068;52.116;4.440;2023-11-25T12:05:46;8.55;;;0.70;;
77872;SDS011;67068;52.116;4.440;2023-11-25T12:08:11;7.23;;;0.87;;
77872;SDS011;67068;52.116;4.440;2023-11-25T12:10:37;7.43;;;1.00;;
77872;SDS011;67068;52.116;4.440;2023-11-25T12:13:03;3.30;;;0.60;;
77872;SDS011;67068;52.116;4.440;2023-11-25T12:15:28;6.30;;;0.70;;
77872;SDS011;67068;52.116;4.440;2023-11-25T12:17:55;4.93;;;0.80;;
77872;SDS011;67068;52.116;4.440;2023-11-25T12:20:21;6.70;;;0.73;;
77872;SDS011;67068;52.116;4.440;2023-11-25T12:22:47;6.03;;;0.85;;
77872;SDS011;67068;52.116;4.440;2023-11-25T12:25:13;4.95;;;0.63;;
77872;SDS011;67068;52.116;4.440;2023-11-25T12:28:17;6.85;;;0.60;;
77872;SDS011;67068;52.116;4.440;2023-11-25T12:30:39;6.30;;;0.88;;
77872;SDS011;67068;52.116;4.440;2023-11-25T12:33:05;5.43;;;0.82;;
77872;SDS011;67068;52.116;4.440;2023-11-25T12:35:32;4.03;;;0.43;;
77872;SDS011;67068;52.116;4.440;2023-11-25T12:37:57;10.57;;;1.58;;
77872;SDS011;67068;52.116;4.440;2023-11-25T12:40:22;7.57;;;1.15;;
77872;SDS011;67068;52.116;4.440;2023-11-25T12:42:51;6.28;;;0.90;;
77872;SDS011;67068;52.116;4.440;2023-11-25T12:47:48;9.90;;;1.30;;
77872;SDS011;67068;52.116;4.440;2023-11-25T12:50:16;8.18;;;1.13;;
77872;SDS011;67068;52.116;4.440;2023-11-25T12:52:45;5.78;;;0.82;;
77872;SDS011;67068;52.116;4.440;2023-11-25T12:55:32;7.18;;;1.00;;
77872;SDS011;67068;52.116;4.440;2023-11-25T12:58:03;7.82;;;1.38;;
77872;SDS011;67068;52.116;4.440;2023-11-25T13:00:28;9.48;;;1.52;;
77872;SDS011;67068;52.116;4.440;2023-11-25T13:02:53;6.23;;;1.60;;
77872;SDS011;67068;52.116;4.440;2023-11-25T13:05:19;7.57;;;1.33;;
77872;SDS011;67068;52.116;4.440;2023-11-25T13:07:49;6.78;;;1.23;;
77872;SDS011;67068;52.116;4.440;2023-11-25T13:10:14;3.57;;;0.93;;
77872;SDS011;67068;52.116;4.440;2023-11-25T13:12:39;6.93;;;1.13;;
77872;SDS011;67068;52.116;4.440;2023-11-25T13:15:04;10.77;;;1.63;;
77872;SDS011;67068;52.116;4.440;2023-11-25T13:17:29;9.48;;;1.48;;
77872;SDS011;67068;52.116;4.440;2023-11-25T13:19:55;6.82;;;1.23;;
77872;SDS011;67068;52.116;4.440;2023-11-25T13:22:22;4.75;;;1.10;;
77872;SDS011;67068;52.116;4.440;2023-11-25T13:24:47;5.83;;;1.20;;
77872;SDS011;67068;52.116;4.440;2023-11-25T13:27:12;7.47;;;1.27;;
77872;SDS011;67068;52.116;4.440;2023-11-25T13:29:38;7.13;;;1.20;;
77872;SDS011;67068;52.116;4.440;2023-11-25T13:32:03;8.13;;;1.30;;
77872;SDS011;67068;52.116;4.440;2023-11-25T13:34:28;9.02;;;1.40;;
77872;SDS011;67068;52.116;4.440;2023-11-25T13:36:54;6.97;;;1.30;;
77872;SDS011;67068;52.116;4.440;2023-11-25T13:39:19;6.83;;;1.20;;
77872;SDS011;67068;52.116;4.440;2023-11-25T13:41:47;6.85;;;1.08;;
77872;SDS011;67068;52.116;4.440;2023-11-25T13:44:13;5.32;;;0.88;;
77872;SDS011;67068;52.116;4.440;2023-11-25T13:46:39;6.43;;;1.38;;
77872;SDS011;67068;52.116;4.440;2023-11-25T13:49:04;8.95;;;1.02;;
77872;SDS011;67068;52.116;4.440;2023-11-25T13:51:30;6.83;;;1.47;;
77872;SDS011;67068;52.116;4.440;2023-11-25T13:53:55;6.53;;;1.10;;
77872;SDS011;67068;52.116;4.440;2023-11-25T13:56:22;5.55;;;1.05;;
77872;SDS011;67068;52.116;4.440;2023-11-25T13:58:49;5.68;;;0.90;;
77872;SDS011;67068;52.116;4.440;2023-11-25T14:01:14;6.13;;;1.07;;
77872;SDS011;67068;52.116;4.440;2023-11-25T14:03:41;4.30;;;1.08;;
77872;SDS011;67068;52.116;4.440;2023-11-25T14:06:06;5.43;;;0.90;;
77872;SDS011;67068;52.116;4.440;2023-11-25T14:08:32;6.75;;;1.02;;
77872;SDS011;67068;52.116;4.440;2023-11-25T14:10:59;7.45;;;1.20;;
77872;SDS011;67068;52.116;4.440;2023-11-25T14:13:24;7.20;;;1.07;;
77872;SDS011;67068;52.116;4.440;2023-11-25T14:15:49;3.63;;;1.00;;
77872;SDS011;67068;52.116;4.440;2023-11-25T14:18:15;7.60;;;1.20;;
77872;SDS011;67068;52.116;4.440;2023-11-25T14:20:41;5.63;;;0.85;;
77872;SDS011;67068;52.116;4.440;2023-11-25T14:23:07;4.28;;;0.90;;
77872;SDS011;67068;52.116;4.440;2023-11-25T14:25:32;4.60;;;0.90;;
77872;SDS011;67068;52.116;4.440;2023-11-25T14:27:57;6.03;;;1.27;;
77872;SDS011;67068;52.116;4.440;2023-11-25T14:30:23;8.13;;;1.20;;
77872;SDS011;67068;52.116;4.440;2023-11-25T14:32:52;5.32;;;1.00;;
77872;SDS011;67068;52.116;4.440;2023-11-25T14:35:19;5.25;;;0.90;;
77872;SDS011;67068;52.116;4.440;2023-11-25T14:37:44;8.40;;;1.40;;
77872;SDS011;67068;52.116;4.440;2023-11-25T14:40:09;4.80;;;0.80;;
77872;SDS011;67068;52.116;4.440;2023-11-25T14:42:36;4.30;;;0.70;;
77872;SDS011;67068;52.116;4.440;2023-11-25T14:45:01;4.68;;;1.10;;
77872;SDS011;67068;52.116;4.440;2023-11-25T14:47:26;3.67;;;0.73;;
77872;SDS011;67068;52.116;4.440;2023-11-25T14:49:52;7.15;;;1.13;;
77872;SDS011;67068;52.116;4.440;2023-11-25T14:52:17;5.40;;;0.93;;
77872;SDS011;67068;52.116;4.440;2023-11-25T14:54:42;6.17;;;0.93;;
77872;SDS011;67068;52.116;4.440;2023-11-25T14:57:08;4.15;;;0.77;;
77872;SDS011;67068;52.116;4.440;2023-11-25T14:59:34;4.60;;;1.00;;